Time;durP1;ratioP1;P1;durP2;ratioP2;P2;SDS_P1;SDS_P2;PMS_P1;PMS_P2;Temp;Humidity;BMP_temperature;BMP_pressure;BME280_temperature;BME280_humidity;BME280_pressure;Samples;Min_cycle;Max_cycle;Signal;HPM_P1;HPM_P2
2023/01/15 00:01:56;;;;;;;2.33;0.50;;;;;;;;;;5009696;28;20088;-56
2023/01/15 00:04:21;;;;;;;1.63;0.50;;;;;;;;;;5008399;28;20025;-58
2023/01/15 00:06:46;;;;;;;0.97;0.40;;;;;;;;;;5003095;28;20029;-57
2023/01/15 00:09:13;;;;;;;0.80;0.30;;;;;;;;;;5011596;28;20465;-56
2023/01/15 00:11:38;;;;;;;2.60;0.60;;;;;;;;;;5011339;28;20037;-56
2023/01/15 00:14:03;;;;;;;2.63;0.90;;;;;;;;;;5012099;28;20046;-57
2023/01/15 00:16:29;;;;;;;2.15;0.70;;;;;;;;;;5012047;28;20496;-58
2023/01/15 00:18:55;;;;;;;3.60;0.90;;;;;;;;;;5011985;28;20037;-58
2023/01/15 00:21:21;;;;;;;;;;;;;;;;;;5011760;28;20060;-58
2023/01/15 00:29:15;;;;;;;2.83;0.90;;;;;;;;;;4994300;28;20072;-58
2023/01/15 00:31:40;;;;;;;2.90;0.90;;;;;;;;;;5011350;28;20590;-58
2023/01/15 00:34:06;;;;;;;3.22;1.05;;;;;;;;;;5012255;28;20881;-59
2023/01/15 00:36:32;;;;;;;3.60;0.97;;;;;;;;;;5012489;28;20057;-57
2023/01/15 00:38:57;;;;;;;4.05;1.27;;;;;;;;;;5012128;28;20064;-57
2023/01/15 00:41:22;;;;;;;3.95;1.02;;;;;;;;;;5011591;28;20482;-57
2023/01/15 00:43:48;;;;;;;3.30;1.00;;;;;;;;;;5011696;28;20034;-57
2023/01/15 00:46:13;;;;;;;3.07;1.00;;;;;;;;;;5009353;28;20029;-59
2023/01/15 00:48:38;;;;;;;2.30;0.88;;;;;;;;;;5011452;28;20087;-56
2023/01/15 00:51:03;;;;;;;2.65;0.88;;;;;;;;;;5008930;28;20057;-58
2023/01/15 00:53:29;;;;;;;3.07;1.00;;;;;;;;;;5010873;28;20044;-58
2023/01/15 00:55:54;;;;;;;2.30;0.80;;;;;;;;;;5010949;28;20114;-56
2023/01/15 00:58:19;;;;;;;2.90;0.90;;;;;;;;;;5011290;28;20029;-58
2023/01/15 01:00:44;;;;;;;2.37;0.90;;;;;;;;;;5009279;28;20225;-57
2023/01/15 01:03:10;;;;;;;2.50;0.85;;;;;;;;;;5006461;28;20490;-59
2023/01/15 01:05:35;;;;;;;2.80;0.90;;;;;;;;;;5009088;28;20105;-57
2023/01/15 01:08:00;;;;;;;3.60;0.95;;;;;;;;;;5010993;28;20026;-57
2023/01/15 01:10:25;;;;;;;3.05;0.90;;;;;;;;;;5009398;28;20495;-55
2023/01/15 01:12:51;;;;;;;2.78;0.95;;;;;;;;;;5004325;28;20023;-57
2023/01/15 01:15:17;;;;;;;2.75;0.88;;;;;;;;;;5010671;28;20021;-57
2023/01/15 01:17:42;;;;;;;3.17;0.98;;;;;;;;;;5011673;28;20606;-56
2023/01/15 01:20:09;;;;;;;2.47;0.90;;;;;;;;;;5006002;28;20049;-59
2023/01/15 01:22:34;;;;;;;2.33;0.80;;;;;;;;;;5011668;28;20018;-58
2023/01/15 01:24:59;;;;;;;3.33;1.20;;;;;;;;;;5012439;28;20030;-57
2023/01/15 01:27:24;;;;;;;2.70;0.90;;;;;;;;;;5013136;28;20121;-57
2023/01/15 01:29:49;;;;;;;3.93;1.10;;;;;;;;;;5011700;28;20022;-57
2023/01/15 01:32:14;;;;;;;3.40;1.08;;;;;;;;;;5010444;28;20490;-59
2023/01/15 01:34:39;;;;;;;2.60;0.80;;;;;;;;;;5011704;28;20030;-57
2023/01/15 01:37:05;;;;;;;2.97;1.05;;;;;;;;;;5011448;28;20113;-58
2023/01/15 01:39:30;;;;;;;3.03;1.00;;;;;;;;;;5010711;28;20475;-55
2023/01/15 01:41:55;;;;;;;3.45;1.10;;;;;;;;;;5004561;28;20072;-60
2023/01/15 01:44:32;;;;;;;4.13;1.50;;;;;;;;;;5011865;28;20030;-55
2023/01/15 01:46:58;;;;;;;4.28;1.65;;;;;;;;;;5011722;28;20563;-56
2023/01/15 01:49:24;;;;;;;5.53;2.00;;;;;;;;;;5010827;28;20097;-55
2023/01/15 01:51:53;;;;;;;4.18;2.00;;;;;;;;;;5010562;28;20108;-56
2023/01/15 01:54:20;;;;;;;4.43;1.90;;;;;;;;;;5010518;28;20021;-56
2023/01/15 01:56:48;;;;;;;4.20;1.92;;;;;;;;;;5011010;28;20048;-56
2023/01/15 01:59:13;;;;;;;4.57;1.90;;;;;;;;;;5010022;28;20067;-55
2023/01/15 02:01:38;;;;;;;4.13;1.97;;;;;;;;;;5009480;28;20109;-55
2023/01/15 02:04:08;;;;;;;5.20;1.90;;;;;;;;;;5010923;28;20026;-55
2023/01/15 02:06:33;;;;;;;3.33;1.63;;;;;;;;;;5010722;28;20041;-56
2023/01/15 02:08:58;;;;;;;5.53;1.88;;;;;;;;;;5009535;28;20014;-56
2023/01/15 02:11:24;;;;;;;5.30;1.60;;;;;;;;;;5010451;28;20033;-56
2023/01/15 02:13:59;;;;;;;4.20;1.95;;;;;;;;;;5014304;28;20072;-57
2023/01/15 02:16:27;;;;;;;3.90;1.60;;;;;;;;;;5008930;28;20026;-56
2023/01/15 02:18:52;;;;;;;4.00;1.40;;;;;;;;;;5010530;28;20467;-56
2023/01/15 02:21:31;;;;;;;4.00;1.60;;;;;;;;;;5009470;28;20467;-56
2023/01/15 02:24:00;;;;;;;3.58;1.35;;;;;;;;;;5005849;28;20026;-56
2023/01/15 02:26:44;;;;;;;3.30;1.30;;;;;;;;;;5010429;28;20026;-56
2023/01/15 02:29:09;;;;;;;;;;;;;;;;;;5011223;28;20026;-55
2023/01/15 02:31:36;;;;;;;3.95;1.23;;;;;;;;;;5007955;28;19917;-56
2023/01/15 02:34:08;;;;;;;3.30;1.25;;;;;;;;;;5009638;28;20010;-56
2023/01/15 02:36:36;;;;;;;4.47;1.45;;;;;;;;;;4990188;28;20029;-56
2023/01/15 02:39:03;;;;;;;3.28;1.40;;;;;;;;;;4990336;28;20010;-57
2023/01/15 02:41:31;;;;;;;3.75;1.30;;;;;;;;;;5009165;28;20109;-56
2023/01/15 02:43:56;;;;;;;3.90;1.30;;;;;;;;;;5010052;28;20025;-56
2023/01/15 02:46:24;;;;;;;2.75;1.13;;;;;;;;;;5008135;28;20503;-56
2023/01/15 02:48:51;;;;;;;3.72;1.20;;;;;;;;;;5009805;28;20018;-56
2023/01/15 02:51:16;;;;;;;;;;;;;;;;;;5009700;28;20046;-56
2023/01/15 02:53:43;;;;;;;3.13;1.27;;;;;;;;;;5010572;28;19905;-56
2023/01/15 02:56:10;;;;;;;3.67;1.20;;;;;;;;;;5008976;28;20159;-56
2023/01/15 02:58:37;;;;;;;2.80;1.08;;;;;;;;;;5012686;28;20063;-57
2023/01/15 03:01:04;;;;;;;2.55;1.00;;;;;;;;;;5016949;28;20029;-57
2023/01/15 03:03:34;;;;;;;2.63;1.00;;;;;;;;;;5008045;28;20022;-56
2023/01/15 03:06:03;;;;;;;2.70;0.90;;;;;;;;;;5006459;28;20040;-56
2023/01/15 03:08:28;;;;;;;2.33;0.90;;;;;;;;;;5009445;28;20106;-56
2023/01/15 03:11:10;;;;;;;2.70;0.90;;;;;;;;;;5007688;28;20029;-56
2023/01/15 03:13:41;;;;;;;2.75;0.82;;;;;;;;;;5000967;28;20030;-57
2023/01/15 03:16:34;;;;;;;1.92;0.70;;;;;;;;;;5006179;28;20026;-57
2023/01/15 03:19:02;;;;;;;1.60;0.63;;;;;;;;;;5008780;28;20060;-56
2023/01/15 03:21:47;;;;;;;1.58;0.40;;;;;;;;;;5008035;28;20018;-56
2023/01/15 03:24:14;;;;;;;0.70;0.30;;;;;;;;;;5006188;28;20030;-56
2023/01/15 03:26:39;;;;;;;;;;;;;;;;;;5006945;28;20389;-58
2023/01/15 03:29:06;;;;;;;0.63;0.20;;;;;;;;;;5012474;28;20323;-56
2023/01/15 03:31:31;;;;;;;;;;;;;;;;;;5008016;28;20079;-57
2023/01/15 03:33:56;;;;;;;1.13;0.30;;;;;;;;;;5012671;28;19909;-56
2023/01/15 03:36:21;;;;;;;0.63;0.20;;;;;;;;;;5012706;28;20022;-57
2023/01/15 03:38:49;;;;;;;0.68;0.20;;;;;;;;;;5013658;28;20084;-57
2023/01/15 03:41:20;;;;;;;0.30;0.20;;;;;;;;;;5011996;28;20036;-57
2023/01/15 03:43:46;;;;;;;0.80;0.25;;;;;;;;;;5013316;28;20022;-56
2023/01/15 03:46:31;;;;;;;0.32;0.10;;;;;;;;;;5013667;28;20018;-58
2023/01/15 03:49:11;;;;;;;0.45;0.20;;;;;;;;;;4972816;28;20566;-57
2023/01/15 03:51:53;;;;;;;0.98;0.30;;;;;;;;;;5010933;28;20387;-56
2023/01/15 03:54:22;;;;;;;0.30;0.13;;;;;;;;;;5011276;28;22272;-57
2023/01/15 03:56:54;;;;;;;2.17;0.38;;;;;;;;;;5012518;28;20333;-56
2023/01/15 03:59:28;;;;;;;0.88;0.28;;;;;;;;;;5008875;28;20034;-57
2023/01/15 04:01:53;;;;;;;1.45;0.38;;;;;;;;;;5010936;28;20112;-56
2023/01/15 04:04:18;;;;;;;0.82;0.30;;;;;;;;;;5010985;28;20116;-56
2023/01/15 04:06:44;;;;;;;0.63;0.30;;;;;;;;;;5011754;28;20037;-56
2023/01/15 04:09:09;;;;;;;1.30;0.30;;;;;;;;;;5009654;28;20036;-56
2023/01/15 04:11:35;;;;;;;1.33;0.30;;;;;;;;;;5011638;28;20580;-56
2023/01/15 04:14:00;;;;;;;1.08;0.20;;;;;;;;;;5011301;28;20097;-57
2023/01/15 04:16:27;;;;;;;1.80;0.30;;;;;;;;;;5008234;28;20065;-55
2023/01/15 04:18:52;;;;;;;1.33;0.38;;;;;;;;;;5010868;28;20463;-56
2023/01/15 04:21:17;;;;;;;0.80;0.30;;;;;;;;;;5009842;28;20033;-56
2023/01/15 04:23:42;;;;;;;0.70;0.30;;;;;;;;;;5014996;28;20467;-57
2023/01/15 04:26:07;;;;;;;2.47;0.30;;;;;;;;;;5010684;28;20042;-57
2023/01/15 04:28:33;;;;;;;1.80;0.30;;;;;;;;;;5009038;28;20026;-57
2023/01/15 04:30:58;;;;;;;1.20;0.30;;;;;;;;;;5008921;28;20037;-57
2023/01/15 04:33:24;;;;;;;0.98;0.30;;;;;;;;;;5010770;28;20030;-56
2023/01/15 04:35:49;;;;;;;0.88;0.30;;;;;;;;;;5008641;28;20471;-57
2023/01/15 04:38:14;;;;;;;1.55;0.50;;;;;;;;;;5007764;28;20029;-57
2023/01/15 04:46:07;;;;;;;2.47;1.02;;;;;;;;;;5008209;28;20390;-58
2023/01/15 04:48:32;;;;;;;3.40;1.00;;;;;;;;;;5007923;28;20022;-57
2023/01/15 04:51:01;;;;;;;2.92;1.00;;;;;;;;;;5010202;28;20108;-56
2023/01/15 04:53:26;;;;;;;3.20;0.95;;;;;;;;;;5008007;28;20027;-57
2023/01/15 04:55:51;;;;;;;4.93;0.77;;;;;;;;;;5008761;28;20490;-56
2023/01/15 04:58:16;;;;;;;2.28;0.70;;;;;;;;;;5009149;28;20083;-57
2023/01/15 05:00:41;;;;;;;1.57;0.40;;;;;;;;;;5007654;28;20086;-58
2023/01/15 05:03:06;;;;;;;1.45;0.40;;;;;;;;;;5005471;28;20318;-56
2023/01/15 05:05:31;;;;;;;1.10;0.32;;;;;;;;;;5005243;28;20129;-57
2023/01/15 05:07:57;;;;;;;1.57;0.50;;;;;;;;;;5007571;28;20048;-56
2023/01/15 05:10:22;;;;;;;1.67;0.43;;;;;;;;;;5010205;28;20038;-57
2023/01/15 05:12:47;;;;;;;1.40;0.35;;;;;;;;;;5011227;28;20125;-56
2023/01/15 05:15:12;;;;;;;1.73;0.60;;;;;;;;;;5011177;28;20022;-56
2023/01/15 05:17:37;;;;;;;2.00;0.70;;;;;;;;;;5011706;28;20093;-57
2023/01/15 05:20:02;;;;;;;2.45;0.80;;;;;;;;;;5010230;28;20036;-56
2023/01/15 05:22:28;;;;;;;2.33;0.80;;;;;;;;;;5011199;28;20600;-56
2023/01/15 05:24:53;;;;;;;3.03;1.00;;;;;;;;;;5011321;28;20436;-56
2023/01/15 05:27:18;;;;;;;2.28;0.80;;;;;;;;;;5010122;28;20026;-56
2023/01/15 05:29:43;;;;;;;2.63;0.87;;;;;;;;;;5010655;28;20017;-57
2023/01/15 05:32:08;;;;;;;2.38;0.80;;;;;;;;;;5011537;28;20112;-56
2023/01/15 05:34:33;;;;;;;1.42;0.60;;;;;;;;;;5035620;23;20115;-53
2023/01/15 05:36:58;;;;;;;2.42;0.80;;;;;;;;;;5030291;28;20033;-52
2023/01/15 05:39:24;;;;;;;2.03;0.87;;;;;;;;;;5026289;28;20136;-53
2023/01/15 05:41:49;;;;;;;1.13;0.60;;;;;;;;;;5019979;28;20018;-53
2023/01/15 05:44:16;;;;;;;1.70;0.63;;;;;;;;;;5027023;28;20018;-53
2023/01/15 05:46:41;;;;;;;;;;;;;;;;;;5030429;28;20513;-50
2023/01/15 05:49:07;;;;;;;1.05;0.50;;;;;;;;;;5027879;28;20361;-49
2023/01/15 05:51:33;;;;;;;1.52;0.40;;;;;;;;;;5030070;28;20124;-49
2023/01/15 05:53:58;;;;;;;1.70;0.47;;;;;;;;;;5030961;28;20476;-50
2023/01/15 05:56:23;;;;;;;0.85;0.50;;;;;;;;;;5021408;28;20383;-50
2023/01/15 05:58:49;;;;;;;0.97;0.50;;;;;;;;;;5023989;28;20688;-49
2023/01/15 06:01:14;;;;;;;1.00;0.40;;;;;;;;;;5038297;28;20483;-49
2023/01/15 06:03:40;;;;;;;1.27;0.47;;;;;;;;;;5026140;28;20549;-49
2023/01/15 06:06:06;;;;;;;1.92;0.50;;;;;;;;;;5010562;28;20068;-50
2023/01/15 06:08:31;;;;;;;1.73;0.60;;;;;;;;;;5026262;28;20029;-50
2023/01/15 06:10:56;;;;;;;1.17;0.50;;;;;;;;;;5035130;28;20033;-50
2023/01/15 06:13:21;;;;;;;2.10;0.60;;;;;;;;;;5028550;28;20072;-50
2023/01/15 06:15:46;;;;;;;2.33;0.80;;;;;;;;;;5029366;28;20052;-50
2023/01/15 06:18:11;;;;;;;2.05;0.80;;;;;;;;;;5030466;28;20468;-49
2023/01/15 06:20:37;;;;;;;3.58;0.70;;;;;;;;;;5033554;28;20153;-50
2023/01/15 06:23:02;;;;;;;2.30;0.88;;;;;;;;;;5010588;28;20014;-49
2023/01/15 06:25:28;;;;;;;3.13;1.10;;;;;;;;;;5010153;28;20053;-49
2023/01/15 06:27:53;;;;;;;2.93;1.00;;;;;;;;;;5016012;28;20033;-51
2023/01/15 06:30:18;;;;;;;2.45;0.90;;;;;;;;;;5022123;28;20034;-50
2023/01/15 06:32:43;;;;;;;2.87;1.10;;;;;;;;;;5029716;28;20017;-50
2023/01/15 06:35:08;;;;;;;3.57;1.10;;;;;;;;;;5038229;28;20053;-50
2023/01/15 06:37:34;;;;;;;2.53;0.98;;;;;;;;;;5029345;28;20036;-49
2023/01/15 06:39:59;;;;;;;3.90;1.10;;;;;;;;;;5037307;28;20024;-51
2023/01/15 06:47:53;;;;;;;0.65;0.10;;;;;;;;;;5027602;28;20037;-49
2023/01/15 06:50:18;;;;;;;0.67;0.20;;;;;;;;;;5031739;28;20037;-48
2023/01/15 06:52:43;;;;;;;0.37;0.10;;;;;;;;;;5037070;28;20198;-49
2023/01/15 06:55:10;;;;;;;0.73;0.03;;;;;;;;;;5041441;28;20013;-48
2023/01/15 06:57:35;;;;;;;;;;;;;;;;;;5038636;28;20112;-49
2023/01/15 07:00:00;;;;;;;2.72;0.30;;;;;;;;;;5038233;28;19999;-50
2023/01/15 07:02:25;;;;;;;0.37;0.10;;;;;;;;;;5033773;28;20021;-49
2023/01/15 07:04:50;;;;;;;1.07;0.20;;;;;;;;;;5035936;28;20021;-49
2023/01/15 07:07:16;;;;;;;0.83;0.20;;;;;;;;;;5035524;28;20068;-49
2023/01/15 07:09:41;;;;;;;1.48;0.20;;;;;;;;;;5038321;28;20029;-49
2023/01/15 07:12:08;;;;;;;0.60;0.28;;;;;;;;;;5028807;28;20045;-50
2023/01/15 07:14:33;;;;;;;0.73;0.30;;;;;;;;;;5015192;28;20496;-49
2023/01/15 07:16:58;;;;;;;0.63;0.17;;;;;;;;;;5028714;28;20029;-51
2023/01/15 07:19:23;;;;;;;0.70;0.22;;;;;;;;;;5041968;28;20051;-50
2023/01/15 07:21:48;;;;;;;0.17;0.13;;;;;;;;;;5034216;28;20045;-50
2023/01/15 07:24:14;;;;;;;0.93;0.20;;;;;;;;;;5016491;28;21075;-50
2023/01/15 07:26:39;;;;;;;1.10;0.27;;;;;;;;;;5032079;28;20040;-51
2023/01/15 07:29:04;;;;;;;0.50;0.30;;;;;;;;;;5026060;28;20024;-50
2023/01/15 07:31:30;;;;;;;1.27;0.30;;;;;;;;;;5027019;28;20112;-50
2023/01/15 07:33:56;;;;;;;1.13;0.30;;;;;;;;;;5033578;28;20109;-50
2023/01/15 07:36:21;;;;;;;0.80;0.28;;;;;;;;;;5032280;28;20021;-50
2023/01/15 07:38:46;;;;;;;0.77;0.30;;;;;;;;;;5039106;28;20382;-50
2023/01/15 07:52:07;;;;;;;0.65;0.30;;;;;;;;;;5033228;28;19920;-50
2023/01/15 07:54:32;;;;;;;1.15;0.40;;;;;;;;;;5033541;28;20025;-51
2023/01/15 07:56:57;;;;;;;2.10;0.55;;;;;;;;;;5031096;28;20068;-52
2023/01/15 07:59:23;;;;;;;2.93;0.50;;;;;;;;;;5041123;28;20063;-50
2023/01/15 08:01:49;;;;;;;1.75;0.50;;;;;;;;;;5032889;28;20031;-50
2023/01/15 08:04:14;;;;;;;2.20;0.57;;;;;;;;;;5015446;28;20018;-50
2023/01/15 08:06:39;;;;;;;1.67;0.40;;;;;;;;;;5014366;28;20054;-50
2023/01/15 08:09:04;;;;;;;2.42;0.40;;;;;;;;;;5032230;28;20115;-49
2023/01/15 08:16:57;;;;;;;;;;;;;;;;;;5028803;28;20084;-50
2023/01/15 08:19:24;;;;;;;1.52;0.40;;;;;;;;;;5038003;28;19913;-50
2023/01/15 08:21:49;;;;;;;1.58;0.30;;;;;;;;;;5018335;28;20517;-49
2023/01/15 08:24:14;;;;;;;1.33;0.30;;;;;;;;;;5032292;28;20041;-49
2023/01/15 08:26:39;;;;;;;3.13;0.50;;;;;;;;;;5030192;28;20083;-50
2023/01/15 08:29:04;;;;;;;2.13;0.30;;;;;;;;;;5027994;28;20397;-50
2023/01/15 08:31:29;;;;;;;0.95;0.35;;;;;;;;;;5038784;28;20058;-49
2023/01/15 08:33:55;;;;;;;2.97;0.47;;;;;;;;;;5044031;28;20025;-49
2023/01/15 08:36:20;;;;;;;1.33;0.40;;;;;;;;;;5029538;28;20033;-50
2023/01/15 08:38:47;;;;;;;0.82;0.32;;;;;;;;;;5024555;28;20049;-49
2023/01/15 08:41:12;;;;;;;1.60;0.50;;;;;;;;;;5030640;28;20014;-49
2023/01/15 08:43:37;;;;;;;1.73;0.40;;;;;;;;;;5023013;28;20006;-48
2023/01/15 08:46:03;;;;;;;1.13;0.37;;;;;;;;;;5025315;28;20036;-50
2023/01/15 08:48:30;;;;;;;1.23;0.40;;;;;;;;;;5026894;28;20013;-50
2023/01/15 08:50:55;;;;;;;1.55;0.30;;;;;;;;;;5047640;28;20029;-51
2023/01/15 08:53:20;;;;;;;1.63;0.50;;;;;;;;;;5035562;28;20497;-51
2023/01/15 08:55:46;;;;;;;2.87;0.60;;;;;;;;;;5034417;28;20037;-50
2023/01/15 08:58:11;;;;;;;2.05;0.50;;;;;;;;;;5024971;28;20454;-50
2023/01/15 09:00:36;;;;;;;2.40;0.60;;;;;;;;;;5027187;28;20056;-52
2023/01/15 09:03:02;;;;;;;2.13;0.70;;;;;;;;;;5028347;28;20107;-51
2023/01/15 09:05:27;;;;;;;5.70;1.47;;;;;;;;;;5021870;28;20017;-49
2023/01/15 09:07:52;;;;;;;3.00;0.88;;;;;;;;;;5018847;28;20111;-50
2023/01/15 09:10:18;;;;;;;3.53;0.65;;;;;;;;;;5017107;28;20399;-50
2023/01/15 09:12:43;;;;;;;2.53;0.80;;;;;;;;;;5016928;28;20033;-49
2023/01/15 09:15:08;;;;;;;2.97;0.80;;;;;;;;;;5020129;28;20048;-50
2023/01/15 09:17:38;;;;;;;3.08;0.90;;;;;;;;;;5021070;28;20438;-50
2023/01/15 09:20:03;;;;;;;4.15;1.00;;;;;;;;;;5023295;28;20025;-49
2023/01/15 09:22:29;;;;;;;4.90;1.70;;;;;;;;;;5028807;28;20021;-51
2023/01/15 09:24:54;;;;;;;2.53;0.82;;;;;;;;;;5026846;28;20029;-50
2023/01/15 09:27:19;;;;;;;3.28;0.80;;;;;;;;;;5023927;28;20672;-53
2023/01/15 09:29:45;;;;;;;2.15;0.80;;;;;;;;;;5024774;28;20025;-51
2023/01/15 09:32:10;;;;;;;1.67;0.60;;;;;;;;;;5023587;28;20037;-49
2023/01/15 09:34:35;;;;;;;2.60;0.70;;;;;;;;;;5023984;28;20494;-51
2023/01/15 09:37:00;;;;;;;3.17;0.90;;;;;;;;;;5017861;28;20036;-49
2023/01/15 09:39:25;;;;;;;2.47;0.68;;;;;;;;;;5029413;28;20043;-50
2023/01/15 09:42:04;;;;;;;2.22;0.75;;;;;;;;;;5024551;28;20033;-51
2023/01/15 09:44:29;;;;;;;3.45;0.90;;;;;;;;;;5028856;28;20072;-51
2023/01/15 09:47:05;;;;;;;2.85;1.00;;;;;;;;;;5034009;28;20045;-51
2023/01/15 09:49:36;;;;;;;2.60;0.98;;;;;;;;;;5018167;28;20033;-50
2023/01/15 09:52:09;;;;;;;3.38;0.85;;;;;;;;;;5022002;28;20063;-52
2023/01/15 09:54:37;;;;;;;2.92;1.20;;;;;;;;;;5026398;28;20025;-50
2023/01/15 09:57:03;;;;;;;2.03;0.77;;;;;;;;;;5026542;28;20026;-52
2023/01/15 09:59:33;;;;;;;2.88;1.15;;;;;;;;;;5022519;28;20446;-51
2023/01/15 10:01:59;;;;;;;4.07;1.10;;;;;;;;;;5025097;28;20018;-52
2023/01/15 10:04:29;;;;;;;3.15;1.10;;;;;;;;;;5028589;28;20491;-51
2023/01/15 10:07:20;;;;;;;3.50;1.17;;;;;;;;;;5019511;28;20021;-51
2023/01/15 10:09:47;;;;;;;5.57;2.00;;;;;;;;;;5020783;28;20033;-52
2023/01/15 10:15:14;;;;;;;4.32;1.58;;;;;;;;;;5023758;28;19976;-52
2023/01/15 10:17:41;;;;;;;4.32;1.40;;;;;;;;;;5028870;28;20037;-55
2023/01/15 10:20:27;;;;;;;4.53;1.38;;;;;;;;;;5020920;28;20104;-52
2023/01/15 10:23:12;;;;;;;3.70;1.20;;;;;;;;;;5023078;28;20025;-52
2023/01/15 10:25:48;;;;;;;3.65;1.20;;;;;;;;;;5016446;28;20044;-57
2023/01/15 10:28:19;;;;;;;3.17;1.15;;;;;;;;;;5027123;28;20362;-59
2023/01/15 10:30:46;;;;;;;4.18;1.40;;;;;;;;;;5021967;28;20045;-53
2023/01/15 10:33:23;;;;;;;2.67;1.02;;;;;;;;;;5025193;28;20017;-52
2023/01/15 10:36:01;;;;;;;3.90;1.10;;;;;;;;;;5021346;28;20037;-54
2023/01/15 10:38:32;;;;;;;3.80;1.30;;;;;;;;;;5026273;28;20014;-50
2023/01/15 10:41:23;;;;;;;4.57;1.10;;;;;;;;;;5027226;28;20050;-52
2023/01/15 10:43:51;;;;;;;3.80;1.40;;;;;;;;;;5027669;28;20424;-55
2023/01/15 10:46:18;;;;;;;3.10;0.90;;;;;;;;;;5027862;28;20542;-51
2023/01/15 10:48:46;;;;;;;3.47;0.75;;;;;;;;;;5022161;28;20037;-54
2023/01/15 10:51:19;;;;;;;2.67;0.80;;;;;;;;;;5029600;28;20128;-52
2023/01/15 10:53:56;;;;;;;1.02;0.40;;;;;;;;;;5032201;28;20052;-53
2023/01/15 10:56:28;;;;;;;1.15;0.40;;;;;;;;;;5033860;28;20120;-51
2023/01/15 10:58:59;;;;;;;1.35;0.32;;;;;;;;;;5029480;28;20379;-51
2023/01/15 11:01:25;;;;;;;2.15;0.40;;;;;;;;;;5023614;28;20032;-57
2023/01/15 11:03:51;;;;;;;5.10;0.60;;;;;;;;;;5021605;28;20100;-54
2023/01/15 11:06:17;;;;;;;1.08;0.35;;;;;;;;;;5031577;28;20168;-51
2023/01/15 11:08:53;;;;;;;1.50;0.40;;;;;;;;;;5025830;28;20022;-55
2023/01/15 11:19:37;;;;;;;9.93;3.10;;;;;;;;;;5032964;28;20528;-52
2023/01/15 11:22:18;;;;;;;5.28;1.52;;;;;;;;;;5027076;28;20405;-51
2023/01/15 11:24:57;;;;;;;3.17;0.75;;;;;;;;;;5036265;28;20047;-51
2023/01/15 11:27:27;;;;;;;1.30;0.40;;;;;;;;;;5033715;28;20025;-52
2023/01/15 11:29:54;;;;;;;2.53;0.60;;;;;;;;;;5056005;28;20466;-53
2023/01/15 11:32:22;;;;;;;2.63;0.80;;;;;;;;;;5047980;28;20490;-58
2023/01/15 11:34:51;;;;;;;2.70;0.93;;;;;;;;;;5041153;28;20025;-52
2023/01/15 11:37:16;;;;;;;2.38;0.57;;;;;;;;;;5047513;28;20045;-51
2023/01/15 11:39:50;;;;;;;1.58;0.47;;;;;;;;;;5031705;28;20501;-55
2023/01/15 11:50:43;;;;;;;3.22;0.55;;;;;;;;;;5025260;28;20128;-53
2023/01/15 11:53:16;;;;;;;1.63;0.60;;;;;;;;;;5031125;28;20104;-52
2023/01/15 11:55:49;;;;;;;1.27;0.38;;;;;;;;;;5031727;28;20030;-53
2023/01/15 11:58:14;;;;;;;;;;;;;;;;;;5036333;28;20026;-52
2023/01/15 12:00:43;;;;;;;1.08;0.40;;;;;;;;;;5038679;28;19919;-56
2023/01/15 12:03:17;;;;;;;1.75;0.40;;;;;;;;;;5039345;28;20024;-51
2023/01/15 12:05:48;;;;;;;1.10;0.40;;;;;;;;;;5010669;28;20382;-52
2023/01/15 12:08:27;;;;;;;1.42;0.52;;;;;;;;;;5031547;28;20362;-51
2023/01/15 12:11:02;;;;;;;2.53;0.50;;;;;;;;;;5028862;28;20036;-51
2023/01/15 12:13:38;;;;;;;1.60;0.40;;;;;;;;;;5029764;28;20013;-55
2023/01/15 12:16:22;;;;;;;2.00;0.50;;;;;;;;;;5023441;28;20028;-52
2023/01/15 12:18:47;;;;;;;1.58;0.50;;;;;;;;;;5020850;28;20025;-55
2023/01/15 12:21:23;;;;;;;2.05;0.52;;;;;;;;;;5036738;28;20123;-52
2023/01/15 12:23:57;;;;;;;1.75;0.40;;;;;;;;;;5030013;28;20021;-56
2023/01/15 12:26:25;;;;;;;2.78;0.63;;;;;;;;;;5027810;28;20040;-55
2023/01/15 12:28:58;;;;;;;1.55;0.50;;;;;;;;;;5025394;28;20025;-57
2023/01/15 12:31:32;;;;;;;1.75;0.50;;;;;;;;;;5023517;28;20033;-53
2023/01/15 12:34:05;;;;;;;2.28;0.43;;;;;;;;;;5024071;28;20032;-53
2023/01/15 12:37:06;;;;;;;2.13;0.57;;;;;;;;;;5026254;28;20026;-54
2023/01/15 12:39:34;;;;;;;1.70;0.47;;;;;;;;;;4943435;28;20031;-54
2023/01/15 12:45:04;;;;;;;1.40;0.40;;;;;;;;;;5032775;28;20075;-51
2023/01/15 12:47:44;;;;;;;1.75;0.40;;;;;;;;;;5019171;28;20441;-51
2023/01/15 12:50:20;;;;;;;1.13;0.35;;;;;;;;;;5016916;28;20483;-51
2023/01/15 12:52:47;;;;;;;1.98;0.50;;;;;;;;;;5029621;28;20475;-50
2023/01/15 12:55:21;;;;;;;2.42;0.60;;;;;;;;;;5024443;28;20018;-50
2023/01/15 12:57:48;;;;;;;2.58;0.60;;;;;;;;;;5039923;28;20525;-51
2023/01/15 13:00:15;;;;;;;1.50;0.50;;;;;;;;;;5037571;28;20489;-51
2023/01/15 13:02:53;;;;;;;2.97;0.82;;;;;;;;;;5032657;28;20082;-51
2023/01/15 13:05:19;;;;;;;2.13;0.65;;;;;;;;;;5030300;28;20031;-51
2023/01/15 13:07:50;;;;;;;1.95;0.60;;;;;;;;;;5030868;28;20025;-51
2023/01/15 13:10:20;;;;;;;2.53;0.80;;;;;;;;;;5038252;28;20042;-52
2023/01/15 13:12:45;;;;;;;3.15;0.80;;;;;;;;;;5034730;28;20031;-52
2023/01/15 13:15:14;;;;;;;2.33;0.77;;;;;;;;;;5028130;28;20017;-51
2023/01/15 13:17:59;;;;;;;2.85;0.60;;;;;;;;;;5020301;28;20041;-51
2023/01/15 13:20:39;;;;;;;1.70;0.47;;;;;;;;;;5028043;28;20119;-51
2023/01/15 13:23:17;;;;;;;2.10;0.60;;;;;;;;;;5029923;28;20025;-50
2023/01/15 13:26:00;;;;;;;1.88;0.50;;;;;;;;;;5023067;28;20044;-50
2023/01/15 13:28:31;;;;;;;2.53;0.50;;;;;;;;;;5013543;28;20022;-49
2023/01/15 13:31:12;;;;;;;1.63;0.50;;;;;;;;;;5030290;28;20025;-51
2023/01/15 13:33:49;;;;;;;1.45;0.40;;;;;;;;;;5037620;28;20025;-50
2023/01/15 13:36:17;;;;;;;0.68;0.30;;;;;;;;;;5021424;28;20120;-51
2023/01/15 13:38:44;;;;;;;2.03;0.50;;;;;;;;;;5019557;28;20083;-51
2023/01/15 13:41:12;;;;;;;2.47;0.50;;;;;;;;;;5021380;28;20517;-51
2023/01/15 13:43:39;;;;;;;0.95;0.40;;;;;;;;;;5021360;28;20025;-51
2023/01/15 13:46:07;;;;;;;1.67;0.38;;;;;;;;;;5027652;28;20379;-51
2023/01/15 13:48:34;;;;;;;2.47;0.52;;;;;;;;;;5031027;28;20022;-51
2023/01/15 13:51:02;;;;;;;2.67;0.52;;;;;;;;;;5019314;28;20037;-51
2023/01/15 13:53:35;;;;;;;2.97;0.30;;;;;;;;;;5023664;28;20108;-51
2023/01/15 13:56:04;;;;;;;0.65;0.30;;;;;;;;;;5028906;28;20030;-52
2023/01/15 13:58:31;;;;;;;1.40;0.30;;;;;;;;;;5031146;28;20386;-52
2023/01/15 14:01:04;;;;;;;2.85;0.57;;;;;;;;;;5033235;28;20071;-52
2023/01/15 14:03:31;;;;;;;0.68;0.20;;;;;;;;;;5016582;28;20301;-51
2023/01/15 14:06:00;;;;;;;1.70;0.35;;;;;;;;;;5020940;28;20618;-51
2023/01/15 14:08:27;;;;;;;0.75;0.28;;;;;;;;;;5026781;28;20498;-51
2023/01/15 14:10:54;;;;;;;1.30;0.25;;;;;;;;;;5034269;28;20025;-50
2023/01/15 14:13:41;;;;;;;1.83;0.40;;;;;;;;;;5032172;28;20021;-50
2023/01/15 14:16:22;;;;;;;1.00;0.30;;;;;;;;;;5027982;28;20358;-50
2023/01/15 14:18:58;;;;;;;0.75;0.20;;;;;;;;;;5036545;28;20014;-50
2023/01/15 14:21:30;;;;;;;1.45;0.30;;;;;;;;;;5013305;28;20029;-51
2023/01/15 14:24:14;;;;;;;1.65;0.40;;;;;;;;;;5031064;28;20025;-49
2023/01/15 14:26:57;;;;;;;2.22;0.50;;;;;;;;;;5030712;28;20025;-50
2023/01/15 14:29:39;;;;;;;2.75;0.60;;;;;;;;;;5032329;28;20035;-49
2023/01/15 14:32:30;;;;;;;3.15;0.75;;;;;;;;;;5034027;28;20030;-49
2023/01/15 14:34:56;;;;;;;1.15;0.45;;;;;;;;;;5030562;28;20037;-49
2023/01/15 14:37:23;;;;;;;2.05;0.30;;;;;;;;;;5029286;28;20018;-50
2023/01/15 14:39:51;;;;;;;1.02;0.32;;;;;;;;;;5028545;28;20422;-51
2023/01/15 14:45:11;;;;;;;1.35;0.32;;;;;;;;;;5032346;28;20052;-50
2023/01/15 14:47:50;;;;;;;1.65;0.28;;;;;;;;;;5030736;28;20017;-50
2023/01/15 14:50:27;;;;;;;0.52;0.20;;;;;;;;;;5030828;28;20388;-50
2023/01/15 14:52:58;;;;;;;0.70;0.28;;;;;;;;;;5030090;28;20021;-51
2023/01/15 14:55:23;;;;;;;0.90;0.30;;;;;;;;;;5038684;28;20014;-51
2023/01/15 14:57:57;;;;;;;1.52;0.40;;;;;;;;;;5031447;28;20032;-51
2023/01/15 15:00:25;;;;;;;1.45;0.30;;;;;;;;;;5030846;28;20108;-56
2023/01/15 15:02:50;;;;;;;0.98;0.30;;;;;;;;;;5030448;28;20026;-51
2023/01/15 15:05:17;;;;;;;1.00;0.30;;;;;;;;;;5030110;28;20020;-53
2023/01/15 15:07:43;;;;;;;0.80;0.20;;;;;;;;;;5028250;28;20076;-52
2023/01/15 15:10:11;;;;;;;2.22;0.35;;;;;;;;;;5038449;28;20462;-52
2023/01/15 15:12:46;;;;;;;0.75;0.30;;;;;;;;;;5030058;28;20033;-50
2023/01/15 15:15:24;;;;;;;0.70;0.20;;;;;;;;;;5029818;28;20036;-54
2023/01/15 15:17:56;;;;;;;1.75;0.32;;;;;;;;;;5030113;28;20486;-54
2023/01/15 15:20:22;;;;;;;;;;;;;;;;;;5030925;28;20485;-52
2023/01/15 15:22:48;;;;;;;1.90;0.30;;;;;;;;;;5031980;28;20362;-51
2023/01/15 15:25:18;;;;;;;1.25;0.30;;;;;;;;;;5032090;28;20026;-51
2023/01/15 15:27:43;;;;;;;1.67;0.50;;;;;;;;;;5038942;28;20092;-51
2023/01/15 15:30:10;;;;;;;0.80;0.20;;;;;;;;;;5053964;28;20075;-50
2023/01/15 15:32:39;;;;;;;1.52;0.30;;;;;;;;;;5037784;28;20041;-52
2023/01/15 15:35:04;;;;;;;1.92;0.47;;;;;;;;;;5013602;28;20045;-52
2023/01/15 15:37:31;;;;;;;2.45;0.60;;;;;;;;;;5018373;28;20025;-53
2023/01/15 15:39:59;;;;;;;5.40;1.75;;;;;;;;;;5032676;28;20466;-51
2023/01/15 15:50:46;;;;;;;4.20;1.00;;;;;;;;;;5034030;28;19963;-54
2023/01/15 15:53:11;;;;;;;;;;;;;;;;;;5033907;28;20032;-51
2023/01/15 15:55:38;;;;;;;4.32;1.20;;;;;;;;;;5031136;28;19905;-51
2023/01/15 15:58:04;;;;;;;8.45;2.60;;;;;;;;;;5040158;28;20028;-54
2023/01/15 16:00:34;;;;;;;4.18;1.00;;;;;;;;;;5033160;28;20029;-53